Time;durP1;ratioP1;P1;durP2;ratioP2;P2;SDS_P1;SDS_P2;PMS_P1;PMS_P2;Temp;Humidity;BMP_temperature;BMP_pressure;BME280_temperature;BME280_humidity;BME280_pressure;Samples;Min_cycle;Max_cycle;Signal;HPM_P1;HPM_P2
2021/06/05 00:00:52;;;;;;;21.55;13.52;;;14.60;99.90;;;;;;4900262;29;20044;-91
2021/06/05 00:03:37;;;;;;;23.23;14.15;;;14.40;99.90;;;;;;4901379;29;20059;-91
2021/06/05 00:07:02;;;;;;;23.83;12.75;;;14.80;99.90;;;;;;4884925;29;20048;-91
2021/06/05 00:10:10;;;;;;;22.38;12.88;;;14.70;99.90;;;;;;4900973;29;20048;-91
2021/06/05 00:13:18;;;;;;;18.70;12.23;;;13.40;99.90;;;;;;4898758;29;20040;-91
2021/06/05 00:15:58;;;;;;;20.73;10.75;;;15.20;99.90;;;;;;4885858;29;20052;-91
2021/06/05 00:19:20;;;;;;;17.92;10.25;;;14.60;99.90;;;;;;4929009;29;20493;-91
2021/06/05 00:21:56;;;;;;;21.65;12.02;;;15.20;99.90;;;;;;4924386;29;20058;-91
2021/06/05 00:26:15;;;;;;;22.58;13.50;;;14.50;99.90;;;;;;4939851;29;20063;-91
2021/06/05 00:29:13;;;;;;;21.13;11.93;;;14.50;99.90;;;;;;4920185;29;20054;-92
2021/06/05 00:32:55;;;;;;;22.30;11.65;;;14.70;99.90;;;;;;4921510;29;20054;-91
2021/06/05 00:36:45;;;;;;;22.08;13.00;;;15.30;99.90;;;;;;4916283;29;20050;-91
2021/06/05 00:39:38;;;;;;;21.73;11.52;;;14.40;99.90;;;;;;4900221;29;20060;-91
2021/06/05 00:46:00;;;;;;;21.63;12.15;;;14.60;99.90;;;;;;4973498;28;20054;-91
2021/06/05 00:48:48;;;;;;;22.33;12.88;;;13.90;99.90;;;;;;4938962;29;20051;-90
2021/06/05 00:51:51;;;;;;;21.50;13.27;;;14.60;99.90;;;;;;4957065;29;20031;-91
2021/06/05 00:54:45;;;;;;;24.55;13.95;;;14.90;99.90;;;;;;4940104;29;20055;-91
2021/06/05 00:57:30;;;;;;;21.67;12.90;;;14.70;99.90;;;;;;5026673;23;20055;-91
2021/06/05 01:00:19;;;;;;;16.15;9.73;;;14.40;99.90;;;;;;4936864;29;20054;-93
2021/06/05 01:03:08;;;;;;;21.83;12.88;;;13.20;99.90;;;;;;5093717;23;20051;-92
2021/06/05 01:06:03;;;;;;;22.05;12.00;;;14.60;99.90;;;;;;4924565;29;20059;-92
2021/06/05 01:10:00;;;;;;;21.95;12.15;;;14.60;99.90;;;;;;4937447;29;20058;-92
2021/06/05 01:13:35;;;;;;;21.42;11.40;;;15.50;99.90;;;;;;4895390;29;20047;-92
2021/06/05 01:16:51;;;;;;;23.13;10.97;;;13.80;99.90;;;;;;4979408;23;20062;31
2021/06/05 01:20:59;;;;;;;19.73;10.45;;;14.80;99.90;;;;;;4929351;29;20063;-92
2021/06/05 01:24:18;;;;;;;15.68;9.80;;;13.30;99.90;;;;;;4937598;29;20046;-92
2021/06/05 01:31:02;;;;;;;14.77;9.48;;;14.40;99.90;;;;;;4903218;29;20060;-92
2021/06/05 01:34:30;;;;;;;14.85;8.88;;;14.10;99.90;;;;;;4862036;29;20041;-92
2021/06/05 01:37:42;;;;;;;17.70;9.35;;;14.20;99.90;;;;;;4859559;29;20057;-91
2021/06/05 01:40:41;;;;;;;15.13;8.63;;;14.40;99.90;;;;;;4877400;29;20054;-91
2021/06/05 01:43:29;;;;;;;18.50;9.55;;;14.20;99.90;;;;;;4860043;29;20059;-92
2021/06/05 01:46:35;;;;;;;17.00;9.80;;;14.50;99.90;;;;;;4961251;23;20049;31
2021/06/05 01:50:36;;;;;;;14.00;9.23;;;14.40;99.90;;;;;;4901459;29;20060;-91
2021/06/05 01:54:01;;;;;;;23.20;10.10;;;14.50;99.90;;;;;;4912584;29;20534;-91
2021/06/05 01:57:04;;;;;;;19.15;9.65;;;16.00;99.90;;;;;;4869390;29;20052;-91
2021/06/05 02:01:06;;;;;;;15.10;7.97;;;14.50;99.90;;;;;;4915653;29;20585;-90
2021/06/05 02:04:20;;;;;;;19.65;9.73;;;14.20;99.90;;;;;;4903257;29;20052;-91
2021/06/05 02:07:57;;;;;;;15.85;9.73;;;14.90;99.90;;;;;;4896486;29;20056;-91
2021/06/05 02:11:08;;;;;;;16.38;9.65;;;14.30;99.90;;;;;;4888821;29;20061;-91
2021/06/05 02:14:43;;;;;;;21.23;10.23;;;14.30;99.90;;;;;;4880741;29;20071;-91
2021/06/05 02:18:12;;;;;;;17.90;8.90;;;14.10;99.90;;;;;;4885605;29;20063;-91
2021/06/05 02:21:49;;;;;;;18.95;10.55;;;14.60;99.90;;;;;;4912948;29;20356;-91
2021/06/05 02:24:56;;;;;;;19.90;10.23;;;15.60;99.90;;;;;;4857431;29;20049;-91
2021/06/05 02:28:13;;;;;;;20.55;10.15;;;14.40;99.90;;;;;;4861341;29;20056;-91
2021/06/05 02:31:48;;;;;;;15.65;9.75;;;15.00;99.90;;;;;;4883143;29;20048;-91
2021/06/05 02:35:20;;;;;;;18.55;10.30;;;14.10;99.90;;;;;;4841745;29;20066;-90
2021/06/05 02:38:30;;;;;;;21.67;10.38;;;14.90;99.90;;;;;;4838586;29;20058;-91
2021/06/05 02:46:17;;;;;;;20.13;10.65;;;15.80;99.90;;;;;;4839155;29;20074;-91
2021/06/05 02:54:14;;;;;;;17.83;10.13;;;14.30;99.90;;;;;;4902476;29;20048;-91
2021/06/05 02:58:53;;;;;;;20.08;10.40;;;14.50;99.90;;;;;;4920155;29;20039;-91
2021/06/05 03:03:18;;;;;;;19.23;10.93;;;14.00;99.90;;;;;;5081072;23;20058;-92
2021/06/05 03:07:37;;;;;;;22.85;12.13;;;14.40;99.90;;;;;;4878716;29;20053;-92
2021/06/05 03:11:22;;;;;;;20.48;11.40;;;14.40;99.90;;;;;;5015008;23;20054;-91
2021/06/05 03:19:52;;;;;;;27.63;15.02;;;14.20;99.90;;;;;;4953633;23;20031;-91
2021/06/05 03:34:22;;;;;;;;;;;;;;;;;;;;;
2021/06/05 03:39:08;;;;;;;26.95;14.10;;;14.20;99.90;;;;;;4834600;29;20053;-92
2021/06/05 03:42:38;;;;;;;26.95;15.95;;;14.70;99.90;;;;;;4826682;29;20081;-92
2021/06/05 03:46:32;;;;;;;26.30;14.98;;;13.80;99.90;;;;;;4842579;29;20064;-92
2021/06/05 03:53:26;;;;;;;30.70;18.50;;;14.20;99.90;;;;;;3062082;23;20083;-88
2021/06/05 03:56:49;;;;;;;24.45;14.95;;;15.80;99.90;;;;;;4923796;29;20046;-91
2021/06/05 04:04:24;;;;;;;33.03;16.35;;;14.10;99.90;;;;;;5141503;23;20055;-92
2021/06/05 04:07:39;;;;;;;;;;;13.40;99.90;;;;;;4945056;29;20074;-92
2021/06/05 04:11:35;;;;;;;29.23;16.60;;;14.10;99.90;;;;;;4964658;29;19948;-92
2021/06/05 04:34:33;;;;;;;32.42;17.52;;;14.00;99.90;;;;;;3266580;23;20393;31
2021/06/05 04:39:01;;;;;;;30.30;18.63;;;14.00;99.90;;;;;;4889534;29;20047;-92
2021/06/05 04:43:04;;;;;;;31.80;18.03;;;14.30;99.90;;;;;;5143247;23;20033;31
2021/06/05 04:51:15;;;;;;;29.15;18.23;;;14.20;99.90;;;;;;4884690;29;20034;-91
2021/06/05 05:02:38;;;;;;;33.22;18.55;;;14.10;99.90;;;;;;4917856;29;20240;-91
2021/06/05 05:07:31;;;;;;;27.52;16.20;;;14.20;99.90;;;;;;4881540;29;20068;-91
2021/06/05 05:23:17;;;;;;;;;;;;;;;;;;;;;
2021/06/05 05:26:54;;;;;;;26.98;17.85;;;14.70;99.90;;;;;;4930091;28;20051;-91
2021/06/05 05:31:28;;;;;;;30.90;17.38;;;15.20;99.90;;;;;;4898825;29;20033;-91
2021/06/05 05:35:17;;;;;;;27.63;16.40;;;14.50;99.90;;;;;;4861592;29;20084;-91
2021/06/05 05:39:09;;;;;;;;;;;14.80;99.90;;;;;;4909539;29;20049;-92
2021/06/05 05:47:48;;;;;;;31.55;17.65;;;15.10;99.90;;;;;;4882735;29;20068;-91
2021/06/05 05:52:13;;;;;;;35.25;20.40;;;13.90;99.90;;;;;;4909681;29;20037;-92
2021/06/05 05:56:43;;;;;;;35.65;17.80;;;14.40;99.90;;;;;;4863795;29;20042;-91
2021/06/05 06:00:51;;;;;;;31.40;17.70;;;14.60;99.90;;;;;;4864906;29;20037;-92
2021/06/05 06:26:40;;;;;;;30.98;18.27;;;14.80;99.90;;;;;;4906800;29;20055;-93
2021/06/05 06:33:53;;;;;;;33.10;17.83;;;14.60;99.90;;;;;;4917985;29;20042;-92
2021/06/05 06:46:31;;;;;;;45.70;21.55;;;14.80;99.90;;;;;;4938341;29;20037;-91
2021/06/05 06:50:08;;;;;;;36.42;21.50;;;14.40;99.90;;;;;;4871075;29;20059;-93
2021/06/05 06:53:36;;;;;;;33.78;19.65;;;14.90;99.90;;;;;;4882913;29;20070;-92
2021/06/05 07:14:37;;;;;;;28.20;16.95;;;15.80;99.90;;;;;;4928309;29;20028;-92
2021/06/05 07:21:46;;;;;;;29.52;15.75;;;15.60;99.90;;;;;;5235556;23;20047;-93
2021/06/05 07:30:00;;;;;;;27.40;15.35;;;15.40;99.90;;;;;;4903184;29;20040;-93
2021/06/05 07:34:08;;;;;;;29.73;16.38;;;15.80;99.90;;;;;;4893487;29;20045;-93
2021/06/05 07:47:41;;;;;;;28.40;14.57;;;14.50;99.90;;;;;;4843329;29;20039;-92
2021/06/05 07:50:59;;;;;;;29.98;15.90;;;17.40;99.90;;;;;;4817280;29;20034;-93
2021/06/05 07:54:10;;;;;;;28.45;15.85;;;15.90;99.90;;;;;;4808195;29;20049;-92
2021/06/05 08:19:02;;;;;;;24.10;12.88;;;16.50;99.90;;;;;;4958877;29;20070;-93
2021/06/05 08:25:55;;;;;;;;;;;16.60;99.90;;;;;;5063016;23;20043;-92
2021/06/05 08:29:32;;;;;;;25.33;12.52;;;16.60;99.90;;;;;;5161050;23;19916;-93
2021/06/05 08:49:50;;;;;;;21.55;10.70;;;17.20;99.90;;;;;;4955993;29;20526;-94
2021/06/05 08:53:07;;;;;;;22.25;11.70;;;17.20;99.90;;;;;;4905973;29;20066;-93
2021/06/05 08:56:45;;;;;;;22.48;11.50;;;17.40;99.90;;;;;;4906421;29;20506;-93
2021/06/05 08:59:24;;;;;;;28.83;10.75;;;17.60;99.90;;;;;;4917536;29;20484;-94
2021/06/05 09:02:11;;;;;;;18.30;10.63;;;17.40;99.90;;;;;;4896997;29;20051;-94
2021/06/05 09:05:00;;;;;;;20.80;9.30;;;17.50;99.90;;;;;;4930309;29;20059;-94
2021/06/05 09:12:29;;;;;;;20.77;9.88;;;17.70;99.90;;;;;;4909107;29;20048;-93
2021/06/05 09:15:32;;;;;;;22.40;9.85;;;17.90;99.90;;;;;;4899913;29;20055;-93
2021/06/05 09:18:57;;;;;;;22.98;11.40;;;18.00;99.90;;;;;;4950751;29;20051;-93
2021/06/05 09:21:45;;;;;;;22.17;10.73;;;18.20;99.90;;;;;;4920871;29;20067;-94
2021/06/05 09:24:57;;;;;;;21.10;10.88;;;18.20;99.90;;;;;;4897983;29;20066;-94
2021/06/05 09:27:44;;;;;;;25.05;11.52;;;18.40;99.90;;;;;;4938295;23;20057;-93
2021/06/05 09:30:42;;;;;;;25.00;10.27;;;18.40;99.90;;;;;;4942741;28;20043;-95
2021/06/05 09:34:01;;;;;;;22.80;11.25;;;18.40;99.90;;;;;;4958252;23;20051;-95
2021/06/05 09:38:11;;;;;;;23.60;11.02;;;18.40;99.90;;;;;;4896192;29;20063;-90
2021/06/05 09:40:39;;;;;;;22.77;11.57;;;18.50;99.90;;;;;;4866684;29;20444;-91
2021/06/05 09:43:10;;;;;;;21.27;11.07;;;17.60;99.90;;;;;;4856138;29;20048;-89
2021/06/05 09:45:42;;;;;;;21.83;10.93;;;18.60;99.90;;;;;;4862867;29;20064;-90
2021/06/05 09:48:39;;;;;;;18.08;9.75;;;18.60;99.90;;;;;;4892281;29;20414;-88
2021/06/05 09:51:23;;;;;;;25.98;11.40;;;18.70;99.90;;;;;;4890229;29;20601;-89
2021/06/05 09:54:08;;;;;;;24.25;11.77;;;18.80;99.90;;;;;;4864493;29;20065;-88
2021/06/05 09:56:44;;;;;;;21.70;10.98;;;18.80;99.90;;;;;;4857182;29;20052;-89
2021/06/05 09:59:30;;;;;;;19.85;10.27;;;18.80;99.90;;;;;;4863594;29;20859;-89
2021/06/05 10:02:15;;;;;;;29.00;10.68;;;19.00;99.90;;;;;;4883201;29;20048;-91
2021/06/05 10:05:01;;;;;;;21.48;11.18;;;19.00;99.90;;;;;;4863627;29;20063;-89
2021/06/05 10:07:30;;;;;;;18.13;8.88;;;19.10;99.90;;;;;;4879869;29;20053;-90
2021/06/05 10:10:12;;;;;;;20.20;8.88;;;19.20;99.90;;;;;;4878758;29;20060;-89
2021/06/05 10:12:41;;;;;;;18.45;8.93;;;19.30;99.90;;;;;;4862227;29;20049;-88
2021/06/05 10:15:15;;;;;;;16.15;7.20;;;19.40;99.90;;;;;;4875728;29;20048;-90
2021/06/05 10:18:10;;;;;;;19.42;10.15;;;19.50;99.90;;;;;;4881410;29;20059;-88
2021/06/05 10:20:48;;;;;;;19.65;8.55;;;19.60;99.90;;;;;;4886691;29;20052;-89
2021/06/05 10:23:44;;;;;;;20.20;9.60;;;19.60;99.90;;;;;;4892356;29;20060;-91
2021/06/05 10:26:27;;;;;;;18.40;8.48;;;19.70;99.90;;;;;;4895576;29;20075;-88
2021/06/05 10:29:27;;;;;;;19.38;10.35;;;19.80;99.90;;;;;;4890987;29;20211;-88
2021/06/05 10:31:58;;;;;;;14.55;7.43;;;20.00;99.90;;;;;;4850864;29;20592;-85
2021/06/05 10:34:40;;;;;;;16.17;7.53;;;20.20;99.90;;;;;;4874130;29;20064;-85
2021/06/05 10:37:19;;;;;;;15.63;8.23;;;20.40;99.90;;;;;;4889212;29;20049;-84
2021/06/05 10:39:50;;;;;;;15.20;7.57;;;20.60;99.90;;;;;;4867474;29;20045;-84
2021/06/05 10:42:53;;;;;;;18.67;8.60;;;20.60;99.90;;;;;;4882744;29;20746;-83
2021/06/05 10:45:36;;;;;;;16.83;7.15;;;20.60;99.90;;;;;;4880014;29;20501;-85
2021/06/05 10:48:08;;;;;;;14.45;6.57;;;20.80;99.90;;;;;;4889720;29;20384;-84
2021/06/05 10:50:45;;;;;;;26.27;11.02;;;20.90;99.90;;;;;;4876580;29;20056;-90
2021/06/05 10:53:30;;;;;;;14.05;7.40;;;20.90;99.90;;;;;;4868222;29;20045;-94
2021/06/05 10:56:13;;;;;;;20.15;7.72;;;20.90;99.90;;;;;;4866248;29;20425;-91
2021/06/05 10:58:46;;;;;;;15.88;7.47;;;21.00;99.90;;;;;;4893226;29;20049;-92
2021/06/05 11:01:30;;;;;;;18.30;8.80;;;21.10;99.90;;;;;;4865113;29;20080;-90
2021/06/05 11:04:02;;;;;;;19.90;8.00;;;20.90;99.90;;;;;;4878876;29;20592;-92
2021/06/05 11:07:05;;;;;;;17.63;8.68;;;21.40;99.90;;;;;;4885341;29;20056;-92
2021/06/05 11:09:50;;;;;;;20.17;8.00;;;21.50;99.90;;;;;;4871493;29;20067;-90
2021/06/05 11:12:20;;;;;;;20.85;9.25;;;20.30;99.90;;;;;;4865743;29;20059;-92
2021/06/05 11:14:50;;;;;;;15.73;8.88;;;21.80;99.90;;;;;;4863798;29;20059;-87
2021/06/05 11:17:38;;;;;;;14.88;7.90;;;22.00;99.90;;;;;;4857565;29;20045;-87
2021/06/05 11:20:08;;;;;;;18.83;8.20;;;22.20;99.90;;;;;;4874983;29;20052;-88
2021/06/05 11:22:52;;;;;;;19.73;8.30;;;22.40;99.90;;;;;;4851717;29;20052;-95
2021/06/05 11:25:31;;;;;;;17.90;7.68;;;22.50;99.90;;;;;;4872674;29;20067;-94
2021/06/05 11:28:24;;;;;;;19.10;7.65;;;22.60;99.90;;;;;;4865741;29;20666;-88
2021/06/05 11:30:53;;;;;;;19.45;9.18;;;22.70;99.90;;;;;;4876995;29;20075;-87
2021/06/05 11:33:42;;;;;;;22.08;8.07;;;22.60;99.90;;;;;;4877989;29;20051;-86
2021/06/05 11:36:37;;;;;;;16.88;8.23;;;22.50;99.90;;;;;;4872841;29;20494;-86
2021/06/05 11:39:24;;;;;;;15.18;6.80;;;22.20;99.90;;;;;;4876660;29;20056;-84
2021/06/05 11:41:55;;;;;;;12.85;7.10;;;22.30;99.90;;;;;;4904385;29;20083;-86
2021/06/05 11:44:34;;;;;;;15.48;7.13;;;22.40;99.90;;;;;;4880128;29;20063;-86
2021/06/05 11:47:18;;;;;;;15.43;7.30;;;22.60;99.90;;;;;;4892817;29;20331;-89
2021/06/05 11:49:45;;;;;;;19.25;7.05;;;22.80;99.00;;;;;;4890144;29;20079;-88
2021/06/05 11:52:25;;;;;;;17.23;7.20;;;23.00;99.20;;;;;;4893780;29;20044;-87
2021/06/05 11:54:57;;;;;;;16.60;6.60;;;23.10;98.30;;;;;;4861340;29;20064;-86
2021/06/05 11:57:33;;;;;;;11.60;6.10;;;23.30;98.10;;;;;;4846676;29;20500;-93
2021/06/05 12:00:18;;;;;;;15.20;6.88;;;23.50;98.10;;;;;;4873023;29;20044;-86
2021/06/05 12:02:54;;;;;;;20.13;6.90;;;23.70;97.50;;;;;;4888524;29;20425;-87
2021/06/05 12:05:36;;;;;;;9.77;6.00;;;23.80;97.50;;;;;;4892563;29;20045;-87
2021/06/05 12:08:28;;;;;;;14.55;5.97;;;24.00;96.40;;;;;;4884479;29;20049;-90
2021/06/05 12:10:58;;;;;;;14.77;6.30;;;24.10;94.80;;;;;;4876862;29;20067;-88
2021/06/05 12:13:37;;;;;;;11.90;5.40;;;24.10;95.30;;;;;;4869974;29;20052;-85
2021/06/05 12:16:14;;;;;;;10.40;5.40;;;24.30;94.70;;;;;;4878337;29;20068;-88
2021/06/05 12:18:47;;;;;;;13.75;6.35;;;24.30;94.50;;;;;;4864947;29;20067;-90
2021/06/05 12:21:36;;;;;;;10.18;5.63;;;24.20;93.90;;;;;;4878384;29;20049;-90
2021/06/05 12:24:26;;;;;;;13.80;7.10;;;24.00;91.90;;;;;;4883339;29;20095;-95
2021/06/05 12:27:02;;;;;;;11.40;5.68;;;23.90;92.60;;;;;;4863745;29;20063;-90
2021/06/05 12:29:39;;;;;;;14.15;7.15;;;23.50;93.50;;;;;;4862485;29;20044;-94
2021/06/05 12:32:24;;;;;;;16.75;7.05;;;23.30;93.70;;;;;;4878405;29;20071;-91
2021/06/05 12:34:52;;;;;;;13.77;6.10;;;23.20;93.90;;;;;;4861417;29;20063;-87
2021/06/05 12:37:31;;;;;;;13.88;5.28;;;23.30;94.40;;;;;;4889277;29;20348;-85
2021/06/05 12:40:19;;;;;;;13.30;6.22;;;23.40;94.20;;;;;;4896109;29;20147;-86
2021/06/05 12:42:47;;;;;;;12.20;5.97;;;23.70;92.50;;;;;;4861200;29;20064;-86
2021/06/05 12:45:21;;;;;;;15.70;6.63;;;23.70;93.20;;;;;;4848906;29;20059;-86
2021/06/05 12:47:56;;;;;;;12.73;5.97;;;23.70;92.90;;;;;;4864980;29;20052;-87
2021/06/05 12:50:31;;;;;;;13.65;7.03;;;23.60;92.40;;;;;;4856958;29;20720;-87
2021/06/05 12:53:01;;;;;;;10.73;5.70;;;23.50;92.20;;;;;;4847343;29;20057;-87
2021/06/05 12:55:42;;;;;;;12.90;5.30;;;23.30;92.60;;;;;;4891556;29;20060;-87
2021/06/05 12:58:12;;;;;;;9.83;4.53;;;23.30;92.20;;;;;;4878390;29;20052;-88
2021/06/05 13:00:42;;;;;;;14.07;5.35;;;23.30;92.60;;;;;;4866424;29;20048;-87
2021/06/05 13:03:11;;;;;;;11.20;4.70;;;23.20;92.40;;;;;;4879329;29;20060;-87
2021/06/05 13:05:57;;;;;;;12.88;3.97;;;23.20;92.10;;;;;;4900077;29;20052;-88
2021/06/05 13:08:33;;;;;;;11.52;4.70;;;23.10;91.70;;;;;;4875629;29;20067;-87
2021/06/05 13:11:03;;;;;;;10.05;4.07;;;23.20;91.30;;;;;;4861000;29;20067;-87
2021/06/05 13:14:05;;;;;;;11.85;3.63;;;23.30;91.40;;;;;;4876376;29;20606;-86
2021/06/05 13:16:34;;;;;;;6.72;3.30;;;23.40;89.20;;;;;;4856690;29;20049;-88
2021/06/05 13:19:29;;;;;;;13.02;3.80;;;23.50;90.50;;;;;;4849946;29;20053;-88
2021/06/05 13:22:09;;;;;;;10.55;3.17;;;23.50;88.50;;;;;;4881123;29;20052;-87
2021/06/05 13:24:38;;;;;;;7.47;3.15;;;23.50;87.70;;;;;;4891579;29;20482;-88
2021/06/05 13:27:23;;;;;;;4.05;2.50;;;23.60;88.20;;;;;;4880568;29;20060;-87
2021/06/05 13:29:52;;;;;;;15.35;4.70;;;23.80;84.50;;;;;;4880713;29;20079;-88
2021/06/05 13:32:20;;;;;;;7.00;2.92;;;24.10;86.20;;;;;;4873736;29;20536;-87
2021/06/05 13:34:51;;;;;;;8.60;2.85;;;24.60;85.60;;;;;;4843324;29;20053;-88
2021/06/05 13:37:19;;;;;;;6.55;2.13;;;24.80;83.40;;;;;;4861114;29;20417;-87
2021/06/05 13:39:48;;;;;;;4.60;2.13;;;24.90;83.30;;;;;;4857306;29;20069;-88
2021/06/05 13:42:18;;;;;;;5.50;2.55;;;24.80;81.40;;;;;;4845026;29;20056;-87
2021/06/05 13:44:46;;;;;;;4.25;2.10;;;25.00;81.10;;;;;;4859311;29;20076;-86
2021/06/05 13:47:15;;;;;;;5.03;2.60;;;25.20;78.30;;;;;;4885056;29;20048;-85
2021/06/05 13:49:43;;;;;;;10.73;2.70;;;25.60;77.40;;;;;;4879908;29;20048;-86
2021/06/05 13:52:29;;;;;;;7.47;2.55;;;25.90;78.20;;;;;;4873204;29;20064;-85
2021/06/05 13:55:00;;;;;;;6.70;2.63;;;26.30;76.20;;;;;;4889383;29;20096;-86
2021/06/05 13:57:28;;;;;;;9.50;2.72;;;26.60;76.10;;;;;;4873510;29;20056;-87
2021/06/05 13:59:58;;;;;;;5.85;2.33;;;27.10;74.80;;;;;;4860304;29;20048;-88
2021/06/05 14:02:26;;;;;;;6.45;2.83;;;27.50;73.30;;;;;;4856617;29;20158;-86
2021/06/05 14:04:54;;;;;;;9.23;2.67;;;27.80;72.10;;;;;;4874965;29;20056;-87
2021/06/05 14:07:24;;;;;;;3.13;2.20;;;28.00;70.90;;;;;;4872154;29;20069;-86
2021/06/05 14:09:53;;;;;;;4.15;1.88;;;28.10;70.60;;;;;;4883244;29;20071;-86
2021/06/05 14:12:26;;;;;;;6.20;2.50;;;28.30;69.70;;;;;;4871150;29;20529;-80
2021/06/05 14:14:55;;;;;;;5.80;2.65;;;28.50;68.00;;;;;;4883726;29;20067;-82
2021/06/05 14:17:23;;;;;;;8.73;2.53;;;28.30;68.00;;;;;;4890886;29;20140;-81
2021/06/05 14:19:51;;;;;;;6.55;2.47;;;28.10;68.10;;;;;;4878491;29;20061;-83
2021/06/05 14:22:19;;;;;;;9.02;3.75;;;28.00;68.00;;;;;;4870787;29;20056;-83
2021/06/05 14:24:47;;;;;;;7.82;2.17;;;28.10;68.10;;;;;;4893248;29;20118;-83
2021/06/05 14:27:16;;;;;;;13.10;3.97;;;28.50;67.60;;;;;;4892893;29;20401;-82
2021/06/05 14:29:44;;;;;;;7.18;2.78;;;28.90;66.20;;;;;;4893300;29;20501;-82
2021/06/05 14:32:12;;;;;;;4.03;2.03;;;29.20;65.10;;;;;;4876772;29;20052;-81
2021/06/05 14:34:40;;;;;;;7.05;2.35;;;29.50;63.50;;;;;;4893831;29;20068;-81
2021/06/05 14:37:07;;;;;;;5.57;1.95;;;29.90;62.70;;;;;;4894151;29;20044;-86
2021/06/05 14:39:35;;;;;;;6.45;1.63;;;30.20;60.90;;;;;;4892985;29;20072;-83
2021/06/05 14:42:05;;;;;;;9.32;1.92;;;30.30;59.70;;;;;;4893261;29;20056;-84
2021/06/05 14:44:35;;;;;;;5.05;2.28;;;30.30;58.40;;;;;;4894309;29;20260;-85
2021/06/05 14:47:04;;;;;;;4.82;1.83;;;30.20;57.80;;;;;;4877297;29;20056;-83
2021/06/05 14:49:32;;;;;;;5.18;2.00;;;29.90;57.50;;;;;;4893026;29;20051;-81
2021/06/05 14:52:01;;;;;;;4.38;1.50;;;29.90;56.50;;;;;;4892817;29;20068;-82
2021/06/05 14:54:29;;;;;;;7.25;1.90;;;30.00;57.40;;;;;;4892831;29;20056;-81
2021/06/05 14:56:57;;;;;;;4.10;1.67;;;30.30;57.60;;;;;;4891547;29;20056;-83
2021/06/05 14:59:26;;;;;;;4.47;2.00;;;30.50;57.10;;;;;;4893339;29;20391;-82
2021/06/05 15:01:54;;;;;;;6.50;2.30;;;30.80;56.40;;;;;;4873389;29;20065;-83
2021/06/05 15:04:22;;;;;;;7.90;2.05;;;31.10;55.40;;;;;;4899917;29;20056;-83
2021/06/05 15:06:50;;;;;;;4.60;2.45;;;31.30;54.60;;;;;;4894850;29;20068;-84
2021/06/05 15:09:18;;;;;;;3.38;1.52;;;31.50;53.90;;;;;;4885821;29;20060;-82
2021/06/05 15:11:46;;;;;;;5.18;1.50;;;31.50;53.00;;;;;;4893088;29;20060;-84
2021/06/05 15:14:14;;;;;;;2.72;1.77;;;31.60;52.50;;;;;;4875163;29;20059;-81
2021/06/05 15:16:41;;;;;;;9.80;2.08;;;31.70;51.80;;;;;;4892749;29;20057;-82
2021/06/05 15:19:09;;;;;;;2.28;0.95;;;31.70;50.80;;;;;;4878936;29;20056;-82
2021/06/05 15:21:37;;;;;;;6.72;1.58;;;31.80;50.80;;;;;;4894796;29;20068;-81
2021/06/05 15:24:06;;;;;;;4.55;1.40;;;31.80;49.90;;;;;;4893495;29;20052;-84
2021/06/05 15:26:34;;;;;;;3.95;1.13;;;31.80;50.50;;;;;;4894806;29;20048;-86
2021/06/05 15:29:02;;;;;;;6.63;1.10;;;32.20;50.30;;;;;;4898954;29;20071;-86
2021/06/05 15:31:34;;;;;;;6.30;1.20;;;32.40;49.40;;;;;;4876316;29;20067;-84
2021/06/05 15:34:02;;;;;;;7.22;1.27;;;32.40;49.00;;;;;;4893950;29;20564;-86
2021/06/05 15:36:30;;;;;;;3.28;1.08;;;32.50;48.60;;;;;;4890584;29;20064;-83
2021/06/05 15:38:58;;;;;;;3.80;1.20;;;32.70;48.80;;;;;;4873396;29;20061;-85
2021/06/05 15:41:28;;;;;;;6.18;1.70;;;32.70;48.70;;;;;;4891356;29;20056;-84
2021/06/05 15:43:56;;;;;;;11.23;1.45;;;32.30;49.10;;;;;;4876493;29;20687;-83
2021/06/05 15:46:24;;;;;;;7.28;1.27;;;31.60;49.20;;;;;;4893702;29;20385;-84
2021/06/05 15:48:54;;;;;;;1.70;0.82;;;31.00;48.80;;;;;;4890806;29;20072;-81
2021/06/05 15:51:44;;;;;;;4.65;1.20;;;30.40;48.40;;;;;;4893100;29;20067;-83
2021/06/05 15:54:16;;;;;;;7.82;1.77;;;29.80;48.60;;;;;;4858270;29;20453;-81
2021/06/05 15:56:44;;;;;;;2.20;1.00;;;29.60;49.20;;;;;;4875200;29;20064;-83
2021/06/05 15:59:12;;;;;;;5.65;1.45;;;29.90;49.10;;;;;;4874062;29;20830;-82
2021/06/05 16:01:41;;;;;;;2.28;1.00;;;30.60;49.10;;;;;;4887057;29;20073;-81
2021/06/05 16:04:14;;;;;;;5.55;1.85;;;31.00;48.70;;;;;;4891572;29;20057;-82
2021/06/05 16:06:43;;;;;;;6.78;1.67;;;31.20;48.60;;;;;;4888480;29;20062;-83
2021/06/05 16:09:13;;;;;;;1.30;0.90;;;31.50;48.40;;;;;;4891371;29;20052;-83
2021/06/05 16:11:43;;;;;;;2.67;0.95;;;31.80;48.10;;;;;;4891270;29;20064;-85
2021/06/05 16:14:11;;;;;;;4.20;1.10;;;32.20;47.90;;;;;;4871619;29;20069;-81
2021/06/05 16:16:40;;;;;;;5.22;0.93;;;32.60;47.30;;;;;;4887008;29;20061;-82
2021/06/05 16:19:08;;;;;;;7.22;1.48;;;32.90;46.80;;;;;;4889858;29;20061;-82
2021/06/05 16:21:49;;;;;;;6.25;1.48;;;33.10;46.50;;;;;;4881670;29;20061;-81
2021/06/05 16:24:24;;;;;;;2.20;1.45;;;33.20;45.50;;;;;;4878373;29;20063;-81
2021/06/05 16:26:55;;;;;;;1.42;0.88;;;33.40;45.00;;;;;;4866434;29;20064;-83
2021/06/05 16:29:27;;;;;;;2.85;0.95;;;33.60;44.80;;;;;;4872188;29;20079;-82
2021/06/05 16:31:56;;;;;;;3.13;0.98;;;33.80;44.40;;;;;;4891589;29;20071;-82
2021/06/05 16:34:25;;;;;;;3.95;1.63;;;33.90;44.00;;;;;;4890754;29;20049;-82
2021/06/05 16:36:53;;;;;;;8.18;1.40;;;34.00;43.90;;;;;;4890351;29;20060;-83
2021/06/05 16:39:21;;;;;;;3.25;0.95;;;34.10;44.00;;;;;;4887438;29;20068;-81
2021/06/05 16:41:53;;;;;;;1.40;0.80;;;34.40;43.80;;;;;;4889012;29;20056;-80
2021/06/05 16:44:22;;;;;;;2.53;1.05;;;34.20;42.90;;;;;;4862550;29;20057;-82
2021/06/05 16:46:50;;;;;;;5.32;1.08;;;34.40;42.90;;;;;;4888826;29;20052;-83
2021/06/05 16:49:18;;;;;;;3.08;1.20;;;34.60;42.60;;;;;;4891061;29;20075;-82
2021/06/05 16:51:46;;;;;;;3.58;0.80;;;34.80;42.10;;;;;;4891281;29;20479;-82
2021/06/05 16:54:13;;;;;;;2.08;0.95;;;34.90;42.10;;;;;;4872897;29;20045;-83
2021/06/05 16:56:41;;;;;;;3.10;0.50;;;35.00;41.90;;;;;;4890916;29;20053;-82
2021/06/05 16:59:09;;;;;;;3.60;1.02;;;35.10;41.50;;;;;;4890399;29;20057;-81
2021/06/05 17:01:38;;;;;;;2.13;1.02;;;34.90;41.80;;;;;;4869625;29;20048;-83
2021/06/05 17:04:14;;;;;;;2.63;1.10;;;34.40;41.80;;;;;;4851773;29;20505;-83
2021/06/05 17:06:44;;;;;;;2.30;0.90;;;34.00;41.90;;;;;;4888412;29;20254;-82
2021/06/05 17:09:15;;;;;;;2.42;1.27;;;33.90;42.10;;;;;;4887310;29;20060;-83
2021/06/05 17:11:46;;;;;;;3.33;0.93;;;34.20;41.90;;;;;;4888167;29;20052;-82
2021/06/05 17:14:16;;;;;;;2.72;1.02;;;34.50;41.70;;;;;;4870178;29;20776;-84
2021/06/05 17:16:44;;;;;;;1.37;1.00;;;34.80;41.10;;;;;;4882205;29;20813;-85
2021/06/05 17:19:12;;;;;;;5.57;1.20;;;34.90;41.00;;;;;;4876316;29;20660;-83
2021/06/05 17:21:43;;;;;;;3.78;1.20;;;35.00;41.40;;;;;;4875994;29;20057;-86
2021/06/05 17:24:11;;;;;;;2.97;0.90;;;35.30;41.00;;;;;;4887851;29;20052;-84
2021/06/05 17:26:39;;;;;;;2.65;0.77;;;35.40;40.60;;;;;;4881964;29;20449;-82
2021/06/05 17:29:07;;;;;;;3.75;1.02;;;35.20;40.50;;;;;;4868667;29;20040;-88
2021/06/05 17:31:36;;;;;;;2.33;0.50;;;35.20;40.70;;;;;;4888464;29;20056;-85
2021/06/05 17:34:04;;;;;;;2.20;0.90;;;35.20;40.60;;;;;;4891153;29;20053;-84
2021/06/05 17:36:32;;;;;;;3.58;1.13;;;35.00;40.10;;;;;;4892964;29;20060;-81
2021/06/05 17:39:02;;;;;;;2.45;0.98;;;34.40;40.30;;;;;;4896943;29;20065;-80
2021/06/05 17:41:30;;;;;;;2.97;1.10;;;33.40;40.80;;;;;;4894251;29;20052;-79
2021/06/05 17:43:59;;;;;;;3.58;0.85;;;32.50;41.60;;;;;;4897258;29;20528;-80
2021/06/05 17:46:27;;;;;;;2.00;1.02;;;32.20;41.80;;;;;;4892933;29;20338;-79
2021/06/05 17:48:55;;;;;;;4.25;1.15;;;32.20;41.70;;;;;;4860931;29;20059;-79
2021/06/05 17:51:25;;;;;;;3.88;1.02;;;32.40;41.70;;;;;;4881301;29;20456;-79
2021/06/05 17:54:04;;;;;;;3.05;1.08;;;32.70;41.30;;;;;;4897614;29;20060;-83
2021/06/05 17:56:32;;;;;;;2.58;1.02;;;33.00;40.60;;;;;;4871113;29;20060;-84
2021/06/05 17:59:00;;;;;;;5.03;1.00;;;33.40;41.10;;;;;;4861953;29;20412;-82
2021/06/05 18:01:29;;;;;;;3.50;0.82;;;33.70;40.70;;;;;;4876660;29;20048;-80
2021/06/05 18:04:03;;;;;;;3.28;1.35;;;34.00;40.60;;;;;;4877137;29;20104;-81
2021/06/05 18:06:31;;;;;;;4.43;1.80;;;34.00;40.70;;;;;;4894766;29;20076;-81
2021/06/05 18:08:59;;;;;;;2.08;0.68;;;33.60;40.90;;;;;;4897261;29;20068;-81
2021/06/05 18:11:36;;;;;;;6.10;1.40;;;33.20;41.30;;;;;;4893137;29;20079;-80
2021/06/05 18:14:06;;;;;;;4.00;1.20;;;33.00;41.30;;;;;;4895267;29;20064;-86
2021/06/05 18:16:38;;;;;;;2.70;1.08;;;33.00;41.50;;;;;;4892785;29;20056;-82